Meteorológiai információk azoknak akik tudják olvasni.

METAR = LHBP 130700Z 09006KT 6000 NSC 08/05 Q1027 NOSIG

9 órás TAF = TAF TAF LHBP 242330Z 2423/2424 30008KT CAVOK BECMG 2506/2509 24010KT OVC030 TEMPO 2509/2515 24015G25KT 8000 -RA BKN013 OVC025 BECMG 2515/2518 30008KT CAVOK

24 órás TAF = TAF TAF LHBP 130515Z 1306/1406 09005KT 7000 NSC BECMG 1308/1310 13008KT CAVOK BECMG 1314/1316 VRB03KT BKN035 BECMG 1320/1322 32008KT CAVOK

ÁLLOMÁS.................... LHBP
ÉSZLELÉS................... Tue Nov 13, 08:00 CET
MOST....................... Tue Nov 13, 08:20 CET
IDŐ........................ 20 perccel ezelőtt
SZÉL....................... K irányból 6 csomó
LÁTÁSTÁVOLSÁG.............. 3.7 mérföld
FELHŐZET................... nincs számottevő felhőzet
HŐMÉRSÉKLET................ 46°F (8°C)
HŐÉRZET.................... 43°F (6°C)
HARMATPONT................. 41°F (5°C)
PÁRATARTALOM............... 82%
LÉGNYOMÁS.................. 1027 hPa (30.33 in Hg)

További információ LHBP állomásról

Meteor információ kérése:        állomásról.    

 

www.tothgeza.hu

 

English version
Copyright © 2003-2018 Tóth Géza Minden jog fenntartva.